Time;durP1;ratioP1;P1;durP2;ratioP2;P2;SDS_P1;SDS_P2;PMS_P1;PMS_P2;Temp;Humidity;BMP_temperature;BMP_pressure;BME280_temperature;BME280_humidity;BME280_pressure;Samples;Min_cycle;Max_cycle;Signal;HPM_P1;HPM_P2
2022/10/21 00:04:55;;;;;;;28.47;20.27;;;13.40;99.90;;;;;;10440302;28;20288;-72
2022/10/21 00:09:55;;;;;;;20.10;18.10;;;13.40;99.90;;;;;;10447703;28;20322;-70
2022/10/21 00:14:56;;;;;;;26.00;19.50;;;13.40;99.90;;;;;;10434203;28;20249;-71
2022/10/21 00:19:56;;;;;;;21.77;19.33;;;13.30;99.90;;;;;;10444325;28;20224;-70
2022/10/21 00:24:57;;;;;;;20.37;18.17;;;13.30;99.90;;;;;;10445982;28;20670;-72
2022/10/21 00:29:57;;;;;;;20.27;18.10;;;13.30;99.90;;;;;;10435532;28;20652;-71
2022/10/21 00:34:58;;;;;;;18.30;16.13;;;13.30;99.90;;;;;;10437447;28;20706;-72
2022/10/21 00:39:59;;;;;;;17.23;15.20;;;13.30;99.90;;;;;;10446240;28;20217;-72
2022/10/21 00:45:06;;;;;;;17.70;15.80;;;13.30;99.90;;;;;;10439401;28;20230;-71
2022/10/21 00:50:36;;;;;;;20.53;14.57;;;13.30;99.90;;;;;;10436478;28;20226;-72
2022/10/21 00:55:42;;;;;;;15.73;13.20;;;13.30;99.90;;;;;;10396374;28;20294;-72
2022/10/21 01:00:43;;;;;;;14.60;12.40;;;13.40;99.90;;;;;;10411201;28;20231;-72
2022/10/21 01:05:44;;;;;;;16.87;12.40;;;13.50;99.90;;;;;;10404752;28;20238;-72
2022/10/21 01:10:45;;;;;;;17.20;11.77;;;13.60;99.90;;;;;;10409207;28;20362;-73
2022/10/21 01:15:54;;;;;;;13.50;10.10;;;13.70;99.90;;;;;;10401381;28;20350;-72
2022/10/21 01:21:13;;;;;;;10.00;9.00;;;13.90;99.90;;;;;;10403820;28;20233;-72
2022/10/21 01:26:51;;;;;;;19.63;10.40;;;13.90;99.90;;;;;;10402617;28;20293;-71
2022/10/21 01:32:17;;;;;;;14.00;10.93;;;13.90;99.90;;;;;;10405180;28;20310;-72
2022/10/21 01:37:30;;;;;;;14.43;10.37;;;13.80;99.90;;;;;;10396807;28;20705;-73
2022/10/21 01:42:40;;;;;;;12.40;10.07;;;13.80;99.90;;;;;;10417594;28;20700;-73
2022/10/21 01:47:49;;;;;;;12.27;9.97;;;13.70;99.90;;;;;;10416348;28;20365;-74
2022/10/21 01:52:52;;;;;;;10.00;8.93;;;13.50;99.90;;;;;;10406716;28;20262;-73
2022/10/21 01:57:58;;;;;;;17.40;10.70;;;13.40;99.90;;;;;;10402624;28;20228;-74
2022/10/21 02:03:00;;;;;;;12.70;10.77;;;13.40;99.90;;;;;;10395050;28;20707;-73
2022/10/21 02:08:01;;;;;;;11.80;10.17;;;13.40;99.90;;;;;;10404308;28;20325;-73
2022/10/21 02:13:04;;;;;;;14.07;11.40;;;13.40;99.90;;;;;;10406789;28;20703;-73
2022/10/21 02:18:18;;;;;;;13.47;10.43;;;13.50;99.90;;;;;;10402779;28;20222;-73
2022/10/21 02:23:24;;;;;;;15.90;10.60;;;13.50;99.90;;;;;;10395155;28;20570;-72
2022/10/21 02:28:24;;;;;;;13.20;10.20;;;13.50;99.90;;;;;;10431423;28;20321;-72
2022/10/21 02:33:51;;;;;;;12.90;10.53;;;13.50;99.90;;;;;;10416039;28;20226;-72
2022/10/21 02:38:59;;;;;;;12.53;10.97;;;13.50;99.90;;;;;;10408332;28;20235;-72
2022/10/21 02:44:02;;;;;;;13.47;10.50;;;13.40;99.90;;;;;;10425249;28;20704;-71
2022/10/21 02:49:03;;;;;;;17.20;11.03;;;13.40;99.90;;;;;;10440460;28;20227;-71
2022/10/21 02:54:03;;;;;;;12.90;11.60;;;13.50;99.90;;;;;;10442863;28;20249;-72
2022/10/21 02:59:04;;;;;;;12.47;11.07;;;13.50;99.90;;;;;;10448936;28;20360;-72
2022/10/21 03:04:05;;;;;;;12.93;11.43;;;13.50;99.90;;;;;;10441355;28;20223;-73
2022/10/21 03:09:05;;;;;;;14.80;11.17;;;13.50;99.90;;;;;;10435546;28;20225;-73
2022/10/21 03:14:06;;;;;;;28.77;13.73;;;13.50;99.90;;;;;;10444866;28;20235;-73
2022/10/21 03:19:08;;;;;;;30.17;19.03;;;13.50;99.90;;;;;;10436130;28;20222;-73
2022/10/21 03:24:08;;;;;;;40.47;18.57;;;13.50;99.90;;;;;;10432785;28;20216;-72
2022/10/21 03:29:09;;;;;;;26.90;16.87;;;13.50;99.90;;;;;;10414583;28;20230;-72
2022/10/21 03:34:10;;;;;;;26.07;17.13;;;13.50;99.90;;;;;;10437916;28;20231;-73
2022/10/21 03:39:11;;;;;;;23.33;17.37;;;13.60;99.90;;;;;;10439308;28;20240;-73
2022/10/21 03:44:11;;;;;;;20.43;15.33;;;13.60;99.90;;;;;;10440366;28;20227;-73
2022/10/21 03:49:12;;;;;;;24.93;16.17;;;13.60;99.90;;;;;;10435118;28;20216;-74
2022/10/21 03:54:12;;;;;;;45.60;19.50;;;13.50;99.90;;;;;;10408783;28;20230;-73
2022/10/21 03:59:13;;;;;;;29.00;17.43;;;13.50;99.90;;;;;;10394176;28;20730;-73
2022/10/21 04:04:14;;;;;;;35.40;18.90;;;13.50;99.90;;;;;;10399883;28;20219;-73
2022/10/21 04:09:14;;;;;;;42.73;19.53;;;13.50;99.90;;;;;;10398244;28;20277;-73
2022/10/21 04:14:15;;;;;;;21.50;16.20;;;13.50;99.90;;;;;;10400575;28;20782;-73
2022/10/21 04:19:17;;;;;;;26.93;16.73;;;13.50;99.90;;;;;;10392246;28;20305;-73
2022/10/21 04:24:18;;;;;;;27.60;18.17;;;13.50;99.90;;;;;;10402463;28;20663;-77
2022/10/21 04:29:19;;;;;;;54.07;20.60;;;13.50;99.90;;;;;;10435965;28;20309;-75
2022/10/21 04:34:19;;;;;;;51.93;21.53;;;13.50;99.90;;;;;;10404411;28;20219;-75
2022/10/21 04:39:20;;;;;;;36.53;20.20;;;13.40;99.90;;;;;;10441552;28;20223;-73
2022/10/21 04:44:21;;;;;;;30.10;19.97;;;13.40;99.90;;;;;;10440786;28;21008;-74
2022/10/21 04:49:21;;;;;;;30.50;19.90;;;13.30;99.90;;;;;;10410443;28;20635;-74
2022/10/21 04:54:22;;;;;;;26.90;18.27;;;13.30;99.90;;;;;;10386433;28;20220;-74
2022/10/21 04:59:23;;;;;;;30.57;18.43;;;13.20;99.90;;;;;;10404267;28;20276;-74
2022/10/21 05:04:23;;;;;;;30.70;18.90;;;13.30;99.90;;;;;;10427041;28;20705;-74
2022/10/21 05:09:24;;;;;;;25.47;18.00;;;13.30;99.90;;;;;;10400405;28;20662;-74
2022/10/21 05:14:24;;;;;;;20.13;15.13;;;13.30;99.90;;;;;;10388623;28;20234;-74
2022/10/21 05:19:25;;;;;;;24.87;16.47;;;13.20;99.90;;;;;;10390376;28;20227;-74
2022/10/21 05:24:26;;;;;;;23.30;17.43;;;13.30;99.90;;;;;;10398625;28;20766;-74
2022/10/21 05:29:28;;;;;;;19.90;15.33;;;13.30;99.90;;;;;;10403757;28;20778;-74
2022/10/21 05:34:28;;;;;;;25.53;19.00;;;13.30;99.90;;;;;;10424815;28;20664;-72
2022/10/21 05:39:29;;;;;;;24.83;17.00;;;13.30;99.90;;;;;;10397444;28;20220;-76
2022/10/21 05:44:29;;;;;;;20.97;17.03;;;13.30;99.90;;;;;;10402463;28;20713;-73
2022/10/21 05:49:30;;;;;;;20.60;16.37;;;13.20;99.90;;;;;;10408477;28;20219;-75
2022/10/21 05:54:31;;;;;;;17.93;14.90;;;13.20;99.90;;;;;;10437826;28;20230;-74
2022/10/21 05:59:31;;;;;;;18.23;14.60;;;13.20;99.90;;;;;;10412572;28;20222;-75
2022/10/21 06:04:32;;;;;;;16.30;13.73;;;13.30;99.90;;;;;;10403260;28;20600;-75
2022/10/21 06:09:34;;;;;;;14.87;13.03;;;13.30;99.90;;;;;;10435476;28;20257;-73
2022/10/21 06:14:35;;;;;;;18.27;13.67;;;13.30;99.90;;;;;;10443975;28;20642;-75
2022/10/21 06:19:35;;;;;;;17.80;14.33;;;13.40;99.90;;;;;;10449346;28;20266;-74
2022/10/21 06:24:36;;;;;;;17.77;12.63;;;13.40;99.90;;;;;;10450380;28;20222;-71
2022/10/21 06:29:37;;;;;;;19.07;14.10;;;13.40;99.90;;;;;;10449632;28;20227;-70
2022/10/21 06:34:38;;;;;;;18.13;13.47;;;13.40;99.90;;;;;;10434587;28;20230;-70
2022/10/21 06:39:38;;;;;;;20.50;13.67;;;13.50;99.90;;;;;;10439886;28;20219;-69
2022/10/21 06:44:42;;;;;;;18.57;15.60;;;13.50;99.90;;;;;;10431950;28;20213;-71
2022/10/21 06:49:43;;;;;;;17.80;13.63;;;13.50;99.90;;;;;;10432865;28;20769;-71
2022/10/21 06:54:43;;;;;;;16.80;14.87;;;13.50;99.90;;;;;;10432926;28;20229;-74
2022/10/21 06:59:46;;;;;;;19.10;14.43;;;13.60;99.90;;;;;;10439272;28;20218;-76
2022/10/21 07:04:48;;;;;;;16.00;13.87;;;13.70;99.90;;;;;;10448313;28;20694;-73
2022/10/21 07:09:48;;;;;;;20.17;12.43;;;13.70;99.90;;;;;;10446383;28;20219;-76
2022/10/21 07:14:49;;;;;;;17.60;13.00;;;13.80;99.90;;;;;;10447622;28;20288;-73
2022/10/21 07:19:50;;;;;;;19.93;14.20;;;13.90;99.90;;;;;;10414091;28;20223;-73
2022/10/21 07:24:50;;;;;;;21.20;14.47;;;13.90;99.90;;;;;;10412393;28;20242;-73
2022/10/21 07:29:51;;;;;;;16.60;14.47;;;14.00;99.90;;;;;;10434798;28;20219;-73
2022/10/21 07:34:51;;;;;;;18.00;13.37;;;14.00;99.90;;;;;;10443886;28;20224;-74
2022/10/21 07:39:53;;;;;;;15.63;11.80;;;14.00;99.90;;;;;;10445805;28;20214;-74
2022/10/21 07:44:58;;;;;;;19.40;12.83;;;14.10;99.90;;;;;;10440365;28;20694;-73
2022/10/21 07:49:58;;;;;;;19.33;13.13;;;14.10;99.90;;;;;;10424857;28;20222;-74
2022/10/21 07:55:01;;;;;;;19.37;12.13;;;14.20;99.90;;;;;;10441193;28;20228;-74
2022/10/21 08:00:02;;;;;;;16.30;11.40;;;14.30;99.90;;;;;;10443086;28;20305;-74
2022/10/21 08:05:03;;;;;;;15.03;10.17;;;14.40;99.90;;;;;;10436712;28;20222;-74
2022/10/21 08:10:05;;;;;;;13.70;10.50;;;14.50;99.90;;;;;;10434243;28;20211;-74
2022/10/21 08:15:06;;;;;;;15.33;9.97;;;14.60;99.90;;;;;;10434506;28;20302;-73
2022/10/21 08:20:07;;;;;;;17.87;10.40;;;14.70;99.90;;;;;;10437928;28;20175;-74
2022/10/21 08:25:10;;;;;;;12.80;9.30;;;14.90;99.90;;;;;;10437321;28;20218;-74
2022/10/21 08:30:11;;;;;;;18.07;10.73;;;15.00;99.90;;;;;;10437773;28;20176;-73
2022/10/21 08:35:11;;;;;;;18.43;9.97;;;15.00;99.90;;;;;;10438258;28;20214;-74
2022/10/21 08:40:12;;;;;;;13.67;9.30;;;15.00;99.90;;;;;;10445675;28;20179;-74
2022/10/21 08:45:42;;;;;;;19.80;9.83;;;15.10;99.90;;;;;;10443455;28;20657;-73
2022/10/21 08:50:49;;;;;;;18.40;10.47;;;15.20;99.90;;;;;;10438767;28;20219;-74
2022/10/21 08:55:56;;;;;;;18.30;10.00;;;15.20;99.90;;;;;;10425090;28;20234;-74
2022/10/21 09:01:08;;;;;;;16.33;9.73;;;15.20;99.90;;;;;;10424818;28;20224;-74
2022/10/21 09:06:27;;;;;;;14.33;10.20;;;15.30;99.90;;;;;;10437898;28;20227;-75
2022/10/21 09:11:58;;;;;;;14.87;8.97;;;15.40;99.90;;;;;;10432218;28;21816;-73
2022/10/21 09:17:02;;;;;;;16.80;8.63;;;15.50;99.90;;;;;;10444179;28;20582;-72
2022/10/21 09:22:25;;;;;;;16.60;8.67;;;15.50;99.90;;;;;;10435661;28;20223;-74
2022/10/21 09:27:26;;;;;;;12.57;7.47;;;15.50;99.90;;;;;;10438646;28;20247;-73
2022/10/21 09:32:38;;;;;;;15.57;7.93;;;15.50;99.90;;;;;;10431086;28;20753;-74
2022/10/21 09:37:47;;;;;;;16.77;8.30;;;15.60;99.90;;;;;;10443356;28;20234;-73
2022/10/21 09:42:51;;;;;;;12.70;7.93;;;15.70;99.90;;;;;;10450035;28;20225;-72
2022/10/21 09:47:58;;;;;;;14.83;7.80;;;15.60;99.90;;;;;;10452471;28;20356;-74
2022/10/21 09:53:13;;;;;;;15.47;8.20;;;15.70;99.90;;;;;;10451432;28;20595;-72
2022/10/21 09:58:27;;;;;;;15.23;8.20;;;15.60;99.90;;;;;;10450828;28;20297;-73
2022/10/21 10:03:35;;;;;;;12.27;7.97;;;15.50;99.90;;;;;;10443320;28;20223;-73
2022/10/21 10:08:43;;;;;;;12.17;7.97;;;15.50;99.90;;;;;;10450243;28;20277;-73
2022/10/21 10:13:50;;;;;;;10.20;7.00;;;15.50;99.90;;;;;;10451079;28;20220;-73
2022/10/21 10:19:12;;;;;;;10.27;6.50;;;15.50;99.90;;;;;;10450306;28;20675;-73
2022/10/21 10:24:17;;;;;;;12.63;8.13;;;15.60;99.90;;;;;;10442000;28;20357;-73
2022/10/21 10:29:27;;;;;;;8.33;7.07;;;15.80;99.90;;;;;;10450314;28;20357;-73
2022/10/21 10:34:48;;;;;;;12.00;7.00;;;15.90;99.90;;;;;;10447705;28;20333;-73
2022/10/21 10:39:55;;;;;;;10.17;6.40;;;16.00;99.90;;;;;;10449709;28;20254;-74
2022/10/21 10:45:22;;;;;;;11.37;6.40;;;16.00;99.90;;;;;;10447195;28;20802;-73
2022/10/21 10:50:40;;;;;;;6.97;4.70;;;16.20;99.90;;;;;;10435929;28;20314;-73
2022/10/21 10:55:44;;;;;;;8.13;4.73;;;16.30;99.90;;;;;;10437350;28;20969;-74
2022/10/21 11:00:46;;;;;;;6.27;3.70;;;16.30;99.90;;;;;;10445172;28;20221;-72
2022/10/21 11:05:51;;;;;;;5.40;2.73;;;16.30;99.90;;;;;;10433066;28;20725;-73
2022/10/21 11:10:59;;;;;;;6.27;2.70;;;16.30;99.90;;;;;;10445940;28;20656;-73
2022/10/21 11:16:26;;;;;;;2.67;2.30;;;16.30;99.90;;;;;;10447958;28;20325;-74
2022/10/21 11:21:26;;;;;;;4.77;2.50;;;16.30;99.90;;;;;;10433801;28;20723;-73
2022/10/21 11:26:54;;;;;;;3.93;2.50;;;16.20;99.90;;;;;;10448068;28;20345;-73
2022/10/21 11:32:10;;;;;;;5.63;2.93;;;16.10;99.90;;;;;;10447168;28;20783;-73
2022/10/21 11:37:23;;;;;;;5.73;3.13;;;16.10;99.90;;;;;;10445778;28;20215;-73
2022/10/21 11:42:37;;;;;;;3.10;2.80;;;16.30;99.90;;;;;;10438474;28;20220;-73
2022/10/21 11:47:37;;;;;;;5.60;3.73;;;16.60;99.90;;;;;;10446966;28;20262;-73
2022/10/21 11:52:51;;;;;;;4.23;2.80;;;17.60;99.90;;;;;;10445872;28;20359;-74
2022/10/21 11:58:22;;;;;;;2.63;1.90;;;18.70;99.90;;;;;;10445932;28;20222;-73
2022/10/21 12:03:42;;;;;;;2.87;1.90;;;19.40;99.90;;;;;;10446622;28;20224;-73
2022/10/21 12:08:56;;;;;;;3.67;2.50;;;19.60;99.90;;;;;;10443348;28;20234;-73
2022/10/21 12:14:11;;;;;;;2.83;2.50;;;19.40;99.90;;;;;;10445674;28;20717;-74
2022/10/21 12:19:13;;;;;;;3.37;2.40;;;19.10;99.90;;;;;;10445426;28;20678;-74
2022/10/21 12:24:29;;;;;;;4.87;2.63;;;18.80;99.90;;;;;;10438189;28;20293;-73
2022/10/21 12:30:12;;;;;;;2.97;2.10;;;18.80;99.90;;;;;;10424820;28;20856;-74
2022/10/21 12:35:19;;;;;;;4.77;2.63;;;18.50;99.90;;;;;;10424123;28;20458;-74
2022/10/21 12:40:26;;;;;;;2.30;2.10;;;18.30;99.90;;;;;;10438261;28;20304;-74
2022/10/21 12:45:33;;;;;;;3.93;2.20;;;18.60;99.90;;;;;;10436481;28;20235;-73
2022/10/21 12:50:34;;;;;;;3.10;1.87;;;19.00;99.90;;;;;;10426463;28;20250;-74
2022/10/21 12:55:39;;;;;;;5.00;2.03;;;19.20;99.90;;;;;;10435267;28;20966;-74
2022/10/21 13:00:43;;;;;;;2.93;2.50;;;19.30;99.90;;;;;;10434674;28;20228;-73
2022/10/21 13:05:46;;;;;;;6.23;2.70;;;19.10;99.90;;;;;;10432126;28;20255;-74
2022/10/21 13:11:02;;;;;;;3.33;2.20;;;18.80;99.90;;;;;;10430694;28;20240;-74
2022/10/21 13:16:26;;;;;;;3.00;2.33;;;18.80;99.90;;;;;;10439092;28;20268;-73
2022/10/21 13:21:38;;;;;;;4.37;2.00;;;18.60;99.90;;;;;;10430618;28;20286;-73
2022/10/21 13:26:48;;;;;;;9.07;2.00;;;18.80;99.90;;;;;;10428301;28;22135;-73
2022/10/21 13:32:09;;;;;;;4.93;1.70;;;18.90;99.90;;;;;;10437262;28;20243;-74
2022/10/21 13:37:15;;;;;;;2.30;1.67;;;18.90;99.90;;;;;;10439812;28;20247;-73
2022/10/21 13:42:17;;;;;;;2.77;1.70;;;18.60;99.90;;;;;;10429973;28;20248;-72
2022/10/21 13:47:27;;;;;;;3.87;1.70;;;18.40;99.90;;;;;;10429229;28;20224;-75
2022/10/21 13:52:29;;;;;;;6.73;1.73;;;18.30;99.90;;;;;;10431133;28;20589;-77
2022/10/21 13:57:33;;;;;;;5.10;1.90;;;18.30;99.90;;;;;;10434859;28;20234;-79
2022/10/21 14:02:34;;;;;;;6.37;1.80;;;18.20;99.90;;;;;;10427788;28;20220;-73
2022/10/21 14:07:34;;;;;;;3.97;1.70;;;18.20;99.90;;;;;;10434773;28;20275;-73
2022/10/21 14:12:42;;;;;;;8.10;1.83;;;18.10;99.90;;;;;;10427710;28;20689;-75
2022/10/21 14:17:48;;;;;;;2.77;1.60;;;18.20;99.90;;;;;;10435161;28;20334;-75
2022/10/21 14:22:50;;;;;;;4.80;1.70;;;18.20;99.90;;;;;;10425987;28;20234;-75
2022/10/21 14:27:51;;;;;;;2.77;1.40;;;18.10;99.90;;;;;;10427995;28;20600;-76
2022/10/21 14:32:52;;;;;;;2.97;2.00;;;17.90;99.90;;;;;;10427210;28;20224;-75
2022/10/21 14:37:59;;;;;;;6.43;1.80;;;17.80;99.90;;;;;;10426078;28;20295;-75
2022/10/21 14:43:16;;;;;;;3.07;2.00;;;17.80;99.90;;;;;;10435044;28;20228;-75
2022/10/21 14:48:27;;;;;;;5.80;2.03;;;17.90;99.90;;;;;;10421032;28;20216;-76
2022/10/21 14:53:35;;;;;;;4.87;1.70;;;17.70;99.90;;;;;;10418214;28;20641;-74
2022/10/21 14:58:37;;;;;;;5.53;2.43;;;17.60;99.90;;;;;;10432803;28;20248;-75
2022/10/21 15:03:46;;;;;;;3.00;2.00;;;17.50;99.90;;;;;;10430300;28;20699;-74
2022/10/21 15:08:56;;;;;;;4.43;2.33;;;17.40;99.90;;;;;;10427457;28;20235;-75
2022/10/21 15:14:11;;;;;;;5.60;2.20;;;17.30;99.90;;;;;;10427552;28;20223;-74
2022/10/21 15:19:35;;;;;;;6.47;2.60;;;17.30;99.90;;;;;;10423748;28;20217;-74
2022/10/21 15:24:44;;;;;;;7.00;2.40;;;17.30;99.90;;;;;;10422365;28;20235;-75
2022/10/21 15:29:47;;;;;;;7.30;2.63;;;17.20;99.90;;;;;;10427879;28;20216;-78
2022/10/21 15:34:52;;;;;;;6.77;2.73;;;17.10;99.90;;;;;;10423854;28;20347;-74
2022/10/21 15:39:53;;;;;;;5.70;3.00;;;17.00;99.90;;;;;;10424893;28;20278;-76
2022/10/21 15:44:54;;;;;;;16.57;5.93;;;16.90;99.90;;;;;;10438393;28;20229;-75
2022/10/21 15:49:55;;;;;;;8.27;4.80;;;16.80;99.90;;;;;;10420559;28;20221;-74
2022/10/21 15:54:55;;;;;;;10.97;4.23;;;16.70;99.90;;;;;;10422325;28;20307;-73
2022/10/21 15:59:56;;;;;;;6.93;3.17;;;16.60;99.90;;;;;;10420923;28;20226;-73
2022/10/21 16:04:56;;;;;;;9.57;3.60;;;16.60;99.90;;;;;;10414882;28;20243;-75
2022/10/21 16:09:57;;;;;;;7.27;2.90;;;16.50;99.90;;;;;;10412762;28;20228;-74
2022/10/21 16:14:58;;;;;;;7.73;3.20;;;16.40;99.90;;;;;;10418274;28;20323;-75
2022/10/21 16:19:58;;;;;;;6.20;3.20;;;16.30;99.90;;;;;;10414528;28;20215;-73
2022/10/21 16:24:59;;;;;;;8.07;2.93;;;16.20;99.90;;;;;;10418199;28;20242;-72
2022/10/21 16:29:59;;;;;;;6.90;3.20;;;16.20;99.90;;;;;;10414045;28;20219;-73
2022/10/21 16:35:00;;;;;;;5.33;2.97;;;16.10;99.90;;;;;;10413128;28;20582;-75
2022/10/21 16:40:01;;;;;;;5.60;3.03;;;16.10;99.90;;;;;;10421743;28;20215;-76
2022/10/21 16:45:02;;;;;;;6.13;3.10;;;16.00;99.90;;;;;;10424162;28;20222;-73
2022/10/21 16:50:04;;;;;;;9.13;3.20;;;16.00;99.90;;;;;;10425330;28;20715;-73
2022/10/21 16:55:09;;;;;;;7.30;2.47;;;15.90;99.90;;;;;;10398890;28;20236;-72
2022/10/21 17:00:10;;;;;;;10.57;3.60;;;15.90;99.90;;;;;;10427911;28;20179;-74
2022/10/21 17:05:12;;;;;;;5.00;2.67;;;15.90;99.90;;;;;;10402098;28;20264;-74
2022/10/21 17:10:12;;;;;;;3.67;2.37;;;15.90;99.90;;;;;;10433359;28;20200;-74
2022/10/21 17:15:14;;;;;;;9.77;3.00;;;15.80;99.90;;;;;;10436001;28;20225;-75
2022/10/21 17:20:15;;;;;;;6.07;2.43;;;15.80;99.90;;;;;;10429618;28;20215;-75
2022/10/21 17:25:16;;;;;;;3.40;2.40;;;15.70;99.90;;;;;;10444531;28;20271;-76
2022/10/21 17:30:17;;;;;;;6.13;2.90;;;15.70;99.90;;;;;;10435259;28;20595;-72
2022/10/21 17:35:17;;;;;;;3.73;2.50;;;15.70;99.90;;;;;;10433492;28;20307;-75
2022/10/21 17:40:24;;;;;;;6.73;2.80;;;15.60;99.90;;;;;;10434070;28;20268;-73
2022/10/21 17:45:25;;;;;;;12.10;3.20;;;15.60;99.90;;;;;;10436206;28;20230;-73
2022/10/21 17:50:25;;;;;;;5.20;2.80;;;15.50;99.90;;;;;;10438046;28;20863;-73
2022/10/21 17:55:26;;;;;;;4.93;3.13;;;15.50;99.90;;;;;;10435744;28;20231;-73
2022/10/21 18:00:26;;;;;;;5.50;3.40;;;15.40;99.90;;;;;;10437526;28;20231;-74
2022/10/21 18:05:27;;;;;;;5.20;2.63;;;15.40;99.90;;;;;;10435238;28;20301;-72
2022/10/21 18:10:27;;;;;;;5.83;2.73;;;15.40;99.90;;;;;;10442829;28;20538;-74
2022/10/21 18:15:30;;;;;;;5.13;2.53;;;15.50;99.90;;;;;;10430410;28;20261;-74
2022/10/21 18:20:35;;;;;;;5.13;2.40;;;15.60;99.90;;;;;;10434373;28;20232;-72
2022/10/21 18:25:37;;;;;;;6.63;2.30;;;15.60;99.90;;;;;;10443446;28;20239;-75
2022/10/21 18:30:43;;;;;;;3.93;2.17;;;15.60;99.90;;;;;;10431143;28;20357;-73
2022/10/21 18:35:44;;;;;;;4.17;2.30;;;15.60;99.90;;;;;;10444874;28;20240;-74
2022/10/21 18:40:44;;;;;;;4.60;2.27;;;15.60;99.90;;;;;;10447928;28;20749;-74
2022/10/21 18:45:45;;;;;;;7.27;2.37;;;15.60;99.90;;;;;;10434671;28;20785;-73
2022/10/21 18:50:46;;;;;;;7.30;2.97;;;15.60;99.90;;;;;;10433352;28;20231;-73
2022/10/21 18:55:46;;;;;;;4.30;2.30;;;15.60;99.90;;;;;;10438383;28;20223;-74
2022/10/21 19:00:47;;;;;;;4.57;2.60;;;15.50;99.90;;;;;;10436647;28;20326;-74
2022/10/21 19:05:47;;;;;;;4.80;2.50;;;15.50;99.90;;;;;;10435602;28;20657;-73
2022/10/21 19:10:48;;;;;;;5.83;2.87;;;15.40;99.90;;;;;;10445609;28;20219;-73
2022/10/21 19:15:49;;;;;;;5.43;2.43;;;15.30;99.90;;;;;;10443590;28;20273;-73
2022/10/21 19:20:50;;;;;;;4.20;2.47;;;15.30;99.90;;;;;;10442309;28;20311;-73
2022/10/21 19:25:50;;;;;;;5.90;2.80;;;15.40;99.90;;;;;;10437453;28;20226;-73
2022/10/21 19:30:51;;;;;;;6.73;2.80;;;15.50;99.90;;;;;;10427410;28;20647;-74
2022/10/21 19:35:52;;;;;;;6.40;2.93;;;15.50;99.90;;;;;;10444599;28;20269;-70
2022/10/21 19:40:53;;;;;;;9.33;2.97;;;15.60;99.90;;;;;;10434815;28;20595;-73
2022/10/21 19:45:53;;;;;;;5.57;2.80;;;15.60;99.90;;;;;;10430269;28;20215;-73
2022/10/21 19:50:55;;;;;;;8.53;3.17;;;15.50;99.90;;;;;;10443286;28;20697;-73
2022/10/21 19:56:01;;;;;;;3.10;2.07;;;15.40;99.90;;;;;;10440476;28;20239;-71
2022/10/21 20:01:10;;;;;;;5.50;2.63;;;15.30;99.90;;;;;;10428594;28;20766;-78
2022/10/21 20:06:15;;;;;;;6.77;2.57;;;15.30;99.90;;;;;;10439323;28;20277;-74
2022/10/21 20:11:18;;;;;;;4.37;1.93;;;15.30;99.90;;;;;;10430961;28;20228;-76
2022/10/21 20:16:27;;;;;;;4.80;2.30;;;15.30;99.90;;;;;;10433206;28;20871;-75
2022/10/21 20:21:30;;;;;;;9.37;2.50;;;15.30;99.90;;;;;;10439811;28;20230;-74
2022/10/21 20:26:31;;;;;;;5.37;2.20;;;15.30;99.90;;;;;;10423922;28;20251;-76
2022/10/21 20:31:31;;;;;;;5.83;2.60;;;15.20;99.90;;;;;;10433181;28;20234;-75
2022/10/21 20:36:33;;;;;;;3.53;2.30;;;15.20;99.90;;;;;;10420833;28;20766;-78
2022/10/21 20:41:36;;;;;;;8.03;3.73;;;15.20;99.90;;;;;;10436079;28;20255;-78
2022/10/21 20:46:36;;;;;;;3.53;2.80;;;15.20;99.90;;;;;;10434553;28;20694;-71
2022/10/21 20:51:40;;;;;;;3.97;2.40;;;15.20;99.90;;;;;;10432011;28;20234;-72
2022/10/21 20:56:41;;;;;;;4.40;2.17;;;15.20;99.90;;;;;;10431300;28;20231;-70
2022/10/21 21:01:44;;;;;;;5.80;2.00;;;15.10;99.90;;;;;;10438169;28;20219;-70
2022/10/21 21:06:54;;;;;;;5.33;2.33;;;15.20;99.90;;;;;;10424213;28;20244;-71
2022/10/21 21:11:54;;;;;;;4.20;2.40;;;15.20;99.90;;;;;;10432870;28;20215;-76
2022/10/21 21:16:55;;;;;;;4.83;3.00;;;15.20;99.90;;;;;;10438486;28;20227;-77
2022/10/21 21:21:56;;;;;;;3.57;2.30;;;15.20;99.90;;;;;;10449679;28;20596;-76
2022/10/21 21:26:58;;;;;;;4.37;2.30;;;15.20;99.90;;;;;;10442176;28;20625;-79
2022/10/21 21:31:59;;;;;;;8.90;2.60;;;15.20;99.90;;;;;;10445888;28;20224;-78
2022/10/21 21:36:59;;;;;;;8.63;3.57;;;15.10;99.90;;;;;;10433382;28;20216;-77
2022/10/21 21:42:00;;;;;;;7.10;2.40;;;15.10;99.90;;;;;;10438852;28;20223;-78
2022/10/21 21:47:02;;;;;;;5.33;2.40;;;15.10;99.90;;;;;;10433621;28;20294;-76
2022/10/21 21:52:02;;;;;;;5.50;2.53;;;15.20;99.90;;;;;;10436959;28;20316;-77
2022/10/21 21:57:03;;;;;;;5.03;1.97;;;15.20;99.90;;;;;;10429660;28;20323;-79
2022/10/21 22:02:04;;;;;;;5.40;2.30;;;15.30;99.90;;;;;;10436867;28;20249;-80
2022/10/21 22:07:08;;;;;;;5.07;2.27;;;15.30;99.90;;;;;;10440721;28;20276;-81
2022/10/21 22:12:08;;;;;;;7.60;2.73;;;15.30;99.90;;;;;;10429736;28;20249;-78
2022/10/21 22:17:09;;;;;;;6.43;2.63;;;15.40;99.90;;;;;;10443966;28;20223;-77
2022/10/21 22:22:09;;;;;;;3.87;2.20;;;15.40;99.90;;;;;;10436248;28;20254;-78
2022/10/21 22:27:10;;;;;;;5.40;2.23;;;15.40;99.90;;;;;;10436498;28;20215;-72
2022/10/21 22:32:11;;;;;;;7.87;1.90;;;15.50;99.90;;;;;;10442353;28;20228;-77
2022/10/21 22:37:12;;;;;;;4.53;2.33;;;15.60;99.90;;;;;;10428127;28;20220;-77
2022/10/21 22:42:13;;;;;;;5.90;2.20;;;15.70;99.90;;;;;;10436613;28;20227;-77
2022/10/21 22:47:13;;;;;;;3.00;2.30;;;15.60;99.90;;;;;;10443116;28;20243;-78
2022/10/21 22:52:14;;;;;;;3.23;1.97;;;15.60;99.90;;;;;;10440869;28;20235;-78
2022/10/21 22:57:16;;;;;;;4.70;2.50;;;15.60;99.90;;;;;;10426538;28;20863;-78
2022/10/21 23:02:17;;;;;;;4.10;2.03;;;15.50;99.90;;;;;;10438224;28;20448;-77
2022/10/21 23:07:21;;;;;;;7.77;2.50;;;15.50;99.90;;;;;;10433570;28;20364;-77
2022/10/21 23:12:23;;;;;;;3.07;2.00;;;15.50;99.90;;;;;;10437269;28;20226;-78
2022/10/21 23:17:24;;;;;;;3.70;2.00;;;15.50;99.90;;;;;;10434903;28;20705;-77
2022/10/21 23:22:25;;;;;;;4.70;2.30;;;15.60;99.90;;;;;;10433623;28;20230;-78
2022/10/21 23:27:26;;;;;;;8.87;2.43;;;15.70;99.90;;;;;;10427427;28;20237;-79
2022/10/21 23:32:27;;;;;;;8.67;2.00;;;15.60;99.90;;;;;;10448527;28;20245;-77
2022/10/21 23:37:28;;;;;;;4.73;1.90;;;15.60;99.90;;;;;;10439126;28;20237;-78
2022/10/21 23:42:28;;;;;;;4.37;2.20;;;15.60;99.90;;;;;;10441182;28;20248;-77
2022/10/21 23:47:29;;;;;;;5.63;1.93;;;15.60;99.90;;;;;;10426053;28;20293;-77
2022/10/21 23:52:30;;;;;;;9.87;2.70;;;15.50;99.90;;;;;;10437640;28;21004;-78
2022/10/21 23:57:39;;;;;;;4.77;2.00;;;15.50;99.90;;;;;;10426353;28;20744;-78
